首页
METAR-TAF:

METAR-TAF

机场 :

Salinas Municipal Airport

萨利纳斯, 加利福尼亚州, 美国

纬度: 36-39-49N, 经度: 121-36-29W, 海拔: 25米

当前天气观测

该预报发布于32分钟前的00:53 UTC
风速13节,风向西北
温度 16°C
湿度 63%
气压 1016 hPa
能見度: 12.9公里
天空无云

METAR: KSNS 210053Z 32013KT 8SM CLR 16/09 A2999 RMK AO2 SLP163 T01560089

时间: 18:25 (01:25 UTC)

预报

该预报发布于2小时和0分钟前的23:25 UTC
预报有效从20日的 23点(UTC)到 21日的 24点(UTC)
风速10节,风向西北,有时为17节阵风
能見度: 10公里
天空无云
从 21日的 0500点(UTC)
风速5节,风向北转西北
能見度: 10公里
天空无云
从 21日的 1000点(UTC)
风速3节,风向多变
能見度: 9.7公里
阴天层高于1400英尺
轻雾
从 21日的 1500点(UTC)
风速3节,风向西转西北
能見度: 10公里
散云层高于1400英尺
从 21日的 1800点(UTC)
风速11节,风向西北
能見度: 10公里
天空无云

TAF: KSNS 202325Z 2023/2124 32010G17KT P6SM SKC FM210500 33005KT P6SM SKC FM211000 VRB03KT 6SM BR OVC014 FM211500 29003KT P6SM SCT014 FM211800 31011KT P6SM SKC

超过4000个机场的气象观测和天气预报(METAR&TAF报告)。

可查询的气象台以黄色和红色小点在地图上表示。

将鼠标移到小点上方,可查看气象台名称。

然后点击查看天气观测和预报。

如需切换地图:点击带黑十字的绿色按钮放大地图;点击带横线的绿色按钮缩小地图;或者点击绿色箭头查看邻近地区的地图。


METAR-TAF: